sensor_id;sensor_type;location;lat;lon;timestamp;temperature;humidity
1329;DHT22;658;48.820;9.354;2023-04-24T00:02:34;24.40;45.50
1329;DHT22;658;48.820;9.354;2023-04-24T00:06:40;24.40;45.50
1329;DHT22;658;48.820;9.354;2023-04-24T00:10:43;24.30;45.40
1329;DHT22;658;48.820;9.354;2023-04-24T00:14:43;24.30;45.40
1329;DHT22;658;48.820;9.354;2023-04-24T00:18:44;24.30;45.40
1329;DHT22;658;48.820;9.354;2023-04-24T00:22:48;24.30;45.40
1329;DHT22;658;48.820;9.354;2023-04-24T00:26:48;24.30;45.40
1329;DHT22;658;48.820;9.354;2023-04-24T00:30:49;24.30;45.40
1329;DHT22;658;48.820;9.354;2023-04-24T00:34:52;24.30;45.50
1329;DHT22;658;48.820;9.354;2023-04-24T00:38:53;24.30;45.40
1329;DHT22;658;48.820;9.354;2023-04-24T00:42:54;24.20;45.40
1329;DHT22;658;48.820;9.354;2023-04-24T00:46:58;24.20;45.40
1329;DHT22;658;48.820;9.354;2023-04-24T00:50:59;24.20;45.40
1329;DHT22;658;48.820;9.354;2023-04-24T00:54:59;24.20;45.40
1329;DHT22;658;48.820;9.354;2023-04-24T00:59:00;24.20;45.40
1329;DHT22;658;48.820;9.354;2023-04-24T01:03:04;24.20;45.40
1329;DHT22;658;48.820;9.354;2023-04-24T01:07:06;24.10;45.40
1329;DHT22;658;48.820;9.354;2023-04-24T01:11:11;24.10;45.40
1329;DHT22;658;48.820;9.354;2023-04-24T01:15:14;24.10;45.40
1329;DHT22;658;48.820;9.354;2023-04-24T01:19:16;24.10;45.40
1329;DHT22;658;48.820;9.354;2023-04-24T01:23:19;24.10;45.40
1329;DHT22;658;48.820;9.354;2023-04-24T01:27:20;24.10;45.40
1329;DHT22;658;48.820;9.354;2023-04-24T01:31:20;24.10;45.40
1329;DHT22;658;48.820;9.354;2023-04-24T01:35:22;24.10;45.40
1329;DHT22;658;48.820;9.354;2023-04-24T01:39:23;24.00;45.30
1329;DHT22;658;48.820;9.354;2023-04-24T01:43:25;24.00;45.40
1329;DHT22;658;48.820;9.354;2023-04-24T01:47:27;24.00;45.30
1329;DHT22;658;48.820;9.354;2023-04-24T01:51:28;24.10;45.40
1329;DHT22;658;48.820;9.354;2023-04-24T01:55:29;24.00;45.30
1329;DHT22;658;48.820;9.354;2023-04-24T01:59:30;24.00;45.30
1329;DHT22;658;48.820;9.354;2023-04-24T02:03:35;24.00;45.30
1329;DHT22;658;48.820;9.354;2023-04-24T02:07:35;24.00;45.30
1329;DHT22;658;48.820;9.354;2023-04-24T02:11:42;23.90;45.20
1329;DHT22;658;48.820;9.354;2023-04-24T02:15:42;23.90;45.20
1329;DHT22;658;48.820;9.354;2023-04-24T02:19:43;23.90;45.20
1329;DHT22;658;48.820;9.354;2023-04-24T02:23:44;23.90;45.30
1329;DHT22;658;48.820;9.354;2023-04-24T02:27:44;23.90;45.30
1329;DHT22;658;48.820;9.354;2023-04-24T02:31:47;23.90;45.30
1329;DHT22;658;48.820;9.354;2023-04-24T02:35:47;23.90;45.30
1329;DHT22;658;48.820;9.354;2023-04-24T02:39:48;23.90;45.30
1329;DHT22;658;48.820;9.354;2023-04-24T02:43:51;23.90;45.80
1329;DHT22;658;48.820;9.354;2023-04-24T02:47:51;23.90;45.20
1329;DHT22;658;48.820;9.354;2023-04-24T02:51:52;23.90;45.30
1329;DHT22;658;48.820;9.354;2023-04-24T02:55:55;23.80;45.20
1329;DHT22;658;48.820;9.354;2023-04-24T02:59:58;23.80;45.20
1329;DHT22;658;48.820;9.354;2023-04-24T03:03:58;23.80;45.20
1329;DHT22;658;48.820;9.354;2023-04-24T03:08:01;23.80;45.20
1329;DHT22;658;48.820;9.354;2023-04-24T03:12:02;23.80;45.20
1329;DHT22;658;48.820;9.354;2023-04-24T03:16:02;23.80;45.20
1329;DHT22;658;48.820;9.354;2023-04-24T03:20:03;23.80;45.30
1329;DHT22;658;48.820;9.354;2023-04-24T03:24:06;23.80;45.20
1329;DHT22;658;48.820;9.354;2023-04-24T03:28:07;23.80;45.20
1329;DHT22;658;48.820;9.354;2023-04-24T03:32:10;23.80;45.20
1329;DHT22;658;48.820;9.354;2023-04-24T03:36:10;23.80;45.30
1329;DHT22;658;48.820;9.354;2023-04-24T03:40:11;23.70;45.20
1329;DHT22;658;48.820;9.354;2023-04-24T03:44:14;23.70;45.20
1329;DHT22;658;48.820;9.354;2023-04-24T03:48:15;23.70;45.20
1329;DHT22;658;48.820;9.354;2023-04-24T03:52:18;23.70;45.20
1329;DHT22;658;48.820;9.354;2023-04-24T03:56:18;23.70;45.20
1329;DHT22;658;48.820;9.354;2023-04-24T04:00:21;23.70;45.10
1329;DHT22;658;48.820;9.354;2023-04-24T04:04:22;23.70;45.10
1329;DHT22;658;48.820;9.354;2023-04-24T04:08:25;23.70;45.10
1329;DHT22;658;48.820;9.354;2023-04-24T04:12:25;23.60;45.10
1329;DHT22;658;48.820;9.354;2023-04-24T04:16:26;23.60;45.10
1329;DHT22;658;48.820;9.354;2023-04-24T04:20:29;23.60;45.10
1329;DHT22;658;48.820;9.354;2023-04-24T04:24:32;23.60;45.10
1329;DHT22;658;48.820;9.354;2023-04-24T04:28:33;23.60;45.10
1329;DHT22;658;48.820;9.354;2023-04-24T04:32:34;23.60;45.10
1329;DHT22;658;48.820;9.354;2023-04-24T04:36:37;23.60;45.10
1329;DHT22;658;48.820;9.354;2023-04-24T04:40:40;23.60;45.10
1329;DHT22;658;48.820;9.354;2023-04-24T04:44:46;23.60;45.10
1329;DHT22;658;48.820;9.354;2023-04-24T04:48:46;23.60;45.20
1329;DHT22;658;48.820;9.354;2023-04-24T04:52:47;23.60;45.20
1329;DHT22;658;48.820;9.354;2023-04-24T04:56:50;23.60;45.20
1329;DHT22;658;48.820;9.354;2023-04-24T05:00:53;23.50;45.20
1329;DHT22;658;48.820;9.354;2023-04-24T05:04:53;23.60;45.20
1329;DHT22;658;48.820;9.354;2023-04-24T05:08:54;23.50;45.10
1329;DHT22;658;48.820;9.354;2023-04-24T05:12:57;23.60;45.30
1329;DHT22;658;48.820;9.354;2023-04-24T05:16:58;23.60;45.20
1329;DHT22;658;48.820;9.354;2023-04-24T05:21:01;23.60;45.30
1329;DHT22;658;48.820;9.354;2023-04-24T05:25:02;23.60;45.20
1329;DHT22;658;48.820;9.354;2023-04-24T05:29:03;23.60;45.20
1329;DHT22;658;48.820;9.354;2023-04-24T05:33:03;23.70;45.20
1329;DHT22;658;48.820;9.354;2023-04-24T05:37:04;23.70;45.10
1329;DHT22;658;48.820;9.354;2023-04-24T05:41:08;23.70;45.10
1329;DHT22;658;48.820;9.354;2023-04-24T05:45:11;23.70;45.00
1329;DHT22;658;48.820;9.354;2023-04-24T05:49:21;23.60;44.90
1329;DHT22;658;48.820;9.354;2023-04-24T05:53:21;23.60;43.30
1329;DHT22;658;48.820;9.354;2023-04-24T05:57:22;23.40;43.40
1329;DHT22;658;48.820;9.354;2023-04-24T06:01:22;23.30;42.70
1329;DHT22;658;48.820;9.354;2023-04-24T06:05:23;23.20;42.70
1329;DHT22;658;48.820;9.354;2023-04-24T06:09:24;23.10;42.70
1329;DHT22;658;48.820;9.354;2023-04-24T06:13:25;23.00;42.60
1329;DHT22;658;48.820;9.354;2023-04-24T06:17:25;23.00;42.70
1329;DHT22;658;48.820;9.354;2023-04-24T06:21:26;22.90;42.60
1329;DHT22;658;48.820;9.354;2023-04-24T06:25:30;22.80;42.50
1329;DHT22;658;48.820;9.354;2023-04-24T06:29:33;22.80;42.70
1329;DHT22;658;48.820;9.354;2023-04-24T06:33:39;22.70;42.80
1329;DHT22;658;48.820;9.354;2023-04-24T06:37:42;22.70;43.00
1329;DHT22;658;48.820;9.354;2023-04-24T06:41:43;22.70;43.10
1329;DHT22;658;48.820;9.354;2023-04-24T06:45:43;22.80;43.40
1329;DHT22;658;48.820;9.354;2023-04-24T06:49:44;22.80;43.10
1329;DHT22;658;48.820;9.354;2023-04-24T06:53:47;22.90;44.30
1329;DHT22;658;48.820;9.354;2023-04-24T06:57:47;22.90;43.50
1329;DHT22;658;48.820;9.354;2023-04-24T07:01:48;22.90;43.60
1329;DHT22;658;48.820;9.354;2023-04-24T07:05:49;23.00;43.90
1329;DHT22;658;48.820;9.354;2023-04-24T07:09:52;23.10;43.70
1329;DHT22;658;48.820;9.354;2023-04-24T07:13:52;23.20;43.80
1329;DHT22;658;48.820;9.354;2023-04-24T07:17:53;23.30;44.00
1329;DHT22;658;48.820;9.354;2023-04-24T07:21:56;23.40;44.10
1329;DHT22;658;48.820;9.354;2023-04-24T07:25:58;23.50;43.90
1329;DHT22;658;48.820;9.354;2023-04-24T07:29:59;23.60;43.60
1329;DHT22;658;48.820;9.354;2023-04-24T07:33:59;23.60;43.60
1329;DHT22;658;48.820;9.354;2023-04-24T07:38:00;23.60;43.60
1329;DHT22;658;48.820;9.354;2023-04-24T07:42:03;23.60;43.60
1329;DHT22;658;48.820;9.354;2023-04-24T07:46:03;23.70;43.70
1329;DHT22;658;48.820;9.354;2023-04-24T07:50:05;23.70;43.70
1329;DHT22;658;48.820;9.354;2023-04-24T07:54:05;23.80;43.70
1329;DHT22;658;48.820;9.354;2023-04-24T07:58:08;23.80;43.60
1329;DHT22;658;48.820;9.354;2023-04-24T08:02:13;23.90;43.60
1329;DHT22;658;48.820;9.354;2023-04-24T08:06:15;23.90;43.50
1329;DHT22;658;48.820;9.354;2023-04-24T08:10:15;23.90;43.40
1329;DHT22;658;48.820;9.354;2023-04-24T08:14:16;24.00;43.60
1329;DHT22;658;48.820;9.354;2023-04-24T08:18:17;24.00;43.30
1329;DHT22;658;48.820;9.354;2023-04-24T08:22:17;24.00;43.20
1329;DHT22;658;48.820;9.354;2023-04-24T08:26:20;24.00;43.30
1329;DHT22;658;48.820;9.354;2023-04-24T08:30:21;24.10;43.30
1329;DHT22;658;48.820;9.354;2023-04-24T08:34:24;24.10;43.10
1329;DHT22;658;48.820;9.354;2023-04-24T08:38:24;24.10;43.00
1329;DHT22;658;48.820;9.354;2023-04-24T08:42:28;24.20;43.00
1329;DHT22;658;48.820;9.354;2023-04-24T08:46:30;24.20;43.00
1329;DHT22;658;48.820;9.354;2023-04-24T08:50:31;24.30;43.10
1329;DHT22;658;48.820;9.354;2023-04-24T08:54:34;24.30;43.00
1329;DHT22;658;48.820;9.354;2023-04-24T08:58:35;24.30;43.00
1329;DHT22;658;48.820;9.354;2023-04-24T09:02:36;24.40;43.00
1329;DHT22;658;48.820;9.354;2023-04-24T09:06:39;24.40;42.90
1329;DHT22;658;48.820;9.354;2023-04-24T09:10:40;24.40;42.90
1329;DHT22;658;48.820;9.354;2023-04-24T09:14:41;24.40;43.10
1329;DHT22;658;48.820;9.354;2023-04-24T09:18:45;24.40;43.00
1329;DHT22;658;48.820;9.354;2023-04-24T09:22:48;24.40;43.00
1329;DHT22;658;48.820;9.354;2023-04-24T09:26:55;24.50;43.00
1329;DHT22;658;48.820;9.354;2023-04-24T09:35:12;24.50;43.10
1329;DHT22;658;48.820;9.354;2023-04-24T09:39:15;24.50;43.20
1329;DHT22;658;48.820;9.354;2023-04-24T09:43:20;24.50;43.20
1329;DHT22;658;48.820;9.354;2023-04-24T09:47:21;24.50;43.20
1329;DHT22;658;48.820;9.354;2023-04-24T09:51:34;24.50;43.20
1329;DHT22;658;48.820;9.354;2023-04-24T09:55:45;24.50;43.10
1329;DHT22;658;48.820;9.354;2023-04-24T09:59:46;24.50;43.10
1329;DHT22;658;48.820;9.354;2023-04-24T10:03:47;24.50;43.00
1329;DHT22;658;48.820;9.354;2023-04-24T10:07:54;24.50;43.00
1329;DHT22;658;48.820;9.354;2023-04-24T10:11:58;24.50;42.90
1329;DHT22;658;48.820;9.354;2023-04-24T10:16:00;24.50;42.80
1329;DHT22;658;48.820;9.354;2023-04-24T10:20:05;24.50;42.70
1329;DHT22;658;48.820;9.354;2023-04-24T10:24:09;24.50;42.60
1329;DHT22;658;48.820;9.354;2023-04-24T10:28:10;24.50;42.50
1329;DHT22;658;48.820;9.354;2023-04-24T10:32:11;24.50;42.40
1329;DHT22;658;48.820;9.354;2023-04-24T10:36:15;24.50;42.40
1329;DHT22;658;48.820;9.354;2023-04-24T10:40:34;24.60;42.50
1329;DHT22;658;48.820;9.354;2023-04-24T10:44:40;24.60;42.30
1329;DHT22;658;48.820;9.354;2023-04-24T10:48:42;24.60;42.50
1329;DHT22;658;48.820;9.354;2023-04-24T10:52:47;24.60;42.30
1329;DHT22;658;48.820;9.354;2023-04-24T10:56:50;24.60;42.10
1329;DHT22;658;48.820;9.354;2023-04-24T11:00:59;24.60;42.10
1329;DHT22;658;48.820;9.354;2023-04-24T11:05:03;24.50;42.00
1329;DHT22;658;48.820;9.354;2023-04-24T11:09:08;24.50;42.00
1329;DHT22;658;48.820;9.354;2023-04-24T11:13:09;24.50;42.00
1329;DHT22;658;48.820;9.354;2023-04-24T11:17:30;24.50;42.00
1329;DHT22;658;48.820;9.354;2023-04-24T11:26:18;24.40;42.00
1329;DHT22;658;48.820;9.354;2023-04-24T11:30:20;24.40;42.60
1329;DHT22;658;48.820;9.354;2023-04-24T11:34:21;24.50;42.10
1329;DHT22;658;48.820;9.354;2023-04-24T11:38:23;24.50;42.00
1329;DHT22;658;48.820;9.354;2023-04-24T11:42:28;24.50;42.20
1329;DHT22;658;48.820;9.354;2023-04-24T11:46:29;24.50;42.70
1329;DHT22;658;48.820;9.354;2023-04-24T11:50:30;24.60;42.30
1329;DHT22;658;48.820;9.354;2023-04-24T11:54:33;24.60;42.30
1329;DHT22;658;48.820;9.354;2023-04-24T11:58:38;24.60;42.10
1329;DHT22;658;48.820;9.354;2023-04-24T12:02:39;24.70;42.20
1329;DHT22;658;48.820;9.354;2023-04-24T12:07:09;24.70;42.30
1329;DHT22;658;48.820;9.354;2023-04-24T12:11:10;24.60;42.40
1329;DHT22;658;48.820;9.354;2023-04-24T12:15:11;24.60;42.30
1329;DHT22;658;48.820;9.354;2023-04-24T12:19:18;24.70;42.40
1329;DHT22;658;48.820;9.354;2023-04-24T12:23:35;24.70;42.30
1329;DHT22;658;48.820;9.354;2023-04-24T12:27:35;24.80;42.10
1329;DHT22;658;48.820;9.354;2023-04-24T12:31:36;24.80;42.00
1329;DHT22;658;48.820;9.354;2023-04-24T12:35:40;24.80;41.90
1329;DHT22;658;48.820;9.354;2023-04-24T12:40:01;24.80;41.90
1329;DHT22;658;48.820;9.354;2023-04-24T12:44:02;24.80;41.90
1329;DHT22;658;48.820;9.354;2023-04-24T12:48:03;24.80;42.10
1329;DHT22;658;48.820;9.354;2023-04-24T12:52:03;24.80;42.20
1329;DHT22;658;48.820;9.354;2023-04-24T12:56:06;24.70;42.10
1329;DHT22;658;48.820;9.354;2023-04-24T13:00:08;24.70;42.10
1329;DHT22;658;48.820;9.354;2023-04-24T13:04:08;24.70;42.10
1329;DHT22;658;48.820;9.354;2023-04-24T13:08:09;24.80;42.10
1329;DHT22;658;48.820;9.354;2023-04-24T13:12:11;24.80;42.30
1329;DHT22;658;48.820;9.354;2023-04-24T13:16:12;24.80;42.30
1329;DHT22;658;48.820;9.354;2023-04-24T13:20:12;24.70;42.10
1329;DHT22;658;48.820;9.354;2023-04-24T13:24:13;24.70;42.50
1329;DHT22;658;48.820;9.354;2023-04-24T13:28:16;24.70;42.40
1329;DHT22;658;48.820;9.354;2023-04-24T13:32:19;24.70;42.50
1329;DHT22;658;48.820;9.354;2023-04-24T13:36:29;24.70;42.50
1329;DHT22;658;48.820;9.354;2023-04-24T13:40:30;24.80;42.40
1329;DHT22;658;48.820;9.354;2023-04-24T13:44:31;24.80;42.40
1329;DHT22;658;48.820;9.354;2023-04-24T13:48:31;24.90;42.40
1329;DHT22;658;48.820;9.354;2023-04-24T13:52:35;24.90;42.60
1329;DHT22;658;48.820;9.354;2023-04-24T13:56:35;24.90;42.70
1329;DHT22;658;48.820;9.354;2023-04-24T14:00:36;24.90;42.80
1329;DHT22;658;48.820;9.354;2023-04-24T14:04:39;24.90;42.70
1329;DHT22;658;48.820;9.354;2023-04-24T14:08:40;24.80;42.50
1329;DHT22;658;48.820;9.354;2023-04-24T14:12:40;24.80;42.80
1329;DHT22;658;48.820;9.354;2023-04-24T14:16:46;24.80;42.70
1329;DHT22;658;48.820;9.354;2023-04-24T14:20:46;24.80;42.80
1329;DHT22;658;48.820;9.354;2023-04-24T14:24:47;24.80;42.80
1329;DHT22;658;48.820;9.354;2023-04-24T14:28:48;24.90;42.70
1329;DHT22;658;48.820;9.354;2023-04-24T14:32:49;24.90;42.80
1329;DHT22;658;48.820;9.354;2023-04-24T14:36:50;25.00;42.90
1329;DHT22;658;48.820;9.354;2023-04-24T14:40:56;24.90;42.90
1329;DHT22;658;48.820;9.354;2023-04-24T14:45:03;25.00;43.00
1329;DHT22;658;48.820;9.354;2023-04-24T14:49:15;25.00;42.70
1329;DHT22;658;48.820;9.354;2023-04-24T14:53:15;25.10;43.30
1329;DHT22;658;48.820;9.354;2023-04-24T14:57:16;25.10;42.60
1329;DHT22;658;48.820;9.354;2023-04-24T15:01:20;25.20;42.60
1329;DHT22;658;48.820;9.354;2023-04-24T15:05:21;25.20;42.50
1329;DHT22;658;48.820;9.354;2023-04-24T15:09:23;25.20;42.40
1329;DHT22;658;48.820;9.354;2023-04-24T15:13:27;25.20;42.40
1329;DHT22;658;48.820;9.354;2023-04-24T15:17:27;25.10;42.60
1329;DHT22;658;48.820;9.354;2023-04-24T15:21:28;25.10;43.20
1329;DHT22;658;48.820;9.354;2023-04-24T15:25:28;25.20;42.50
1329;DHT22;658;48.820;9.354;2023-04-24T15:29:29;25.10;42.40
1329;DHT22;658;48.820;9.354;2023-04-24T15:33:32;25.10;42.40
1329;DHT22;658;48.820;9.354;2023-04-24T15:37:33;25.20;42.40
1329;DHT22;658;48.820;9.354;2023-04-24T15:41:34;25.20;42.60
1329;DHT22;658;48.820;9.354;2023-04-24T15:45:34;25.20;42.40
1329;DHT22;658;48.820;9.354;2023-04-24T15:49:35;25.10;42.40
1329;DHT22;658;48.820;9.354;2023-04-24T15:53:36;25.10;42.50
1329;DHT22;658;48.820;9.354;2023-04-24T15:57:39;25.00;42.40
1329;DHT22;658;48.820;9.354;2023-04-24T16:01:39;25.00;42.40
1329;DHT22;658;48.820;9.354;2023-04-24T16:05:42;25.00;42.50
1329;DHT22;658;48.820;9.354;2023-04-24T16:09:43;24.90;42.80
1329;DHT22;658;48.820;9.354;2023-04-24T16:13:44;25.00;42.70
1329;DHT22;658;48.820;9.354;2023-04-24T16:17:45;25.00;42.70
1329;DHT22;658;48.820;9.354;2023-04-24T16:21:45;25.00;42.80
1329;DHT22;658;48.820;9.354;2023-04-24T16:25:46;25.00;42.80
1329;DHT22;658;48.820;9.354;2023-04-24T16:29:47;25.00;42.80
1329;DHT22;658;48.820;9.354;2023-04-24T16:33:47;25.10;43.00
1329;DHT22;658;48.820;9.354;2023-04-24T16:37:48;25.10;42.90
1329;DHT22;658;48.820;9.354;2023-04-24T16:41:49;25.10;42.80
1329;DHT22;658;48.820;9.354;2023-04-24T16:45:50;25.20;43.30
1329;DHT22;658;48.820;9.354;2023-04-24T16:49:52;25.20;42.80
1329;DHT22;658;48.820;9.354;2023-04-24T16:53:55;25.20;42.60
1329;DHT22;658;48.820;9.354;2023-04-24T16:57:56;25.20;42.50
1329;DHT22;658;48.820;9.354;2023-04-24T17:01:58;25.20;42.40
1329;DHT22;658;48.820;9.354;2023-04-24T17:06:02;25.20;42.30
1329;DHT22;658;48.820;9.354;2023-04-24T17:10:02;25.20;42.30
1329;DHT22;658;48.820;9.354;2023-04-24T17:14:03;25.20;42.20
1329;DHT22;658;48.820;9.354;2023-04-24T17:18:05;25.10;42.20
1329;DHT22;658;48.820;9.354;2023-04-24T17:22:06;25.10;42.10
1329;DHT22;658;48.820;9.354;2023-04-24T17:26:06;25.00;42.10
1329;DHT22;658;48.820;9.354;2023-04-24T17:30:07;25.00;42.20
1329;DHT22;658;48.820;9.354;2023-04-24T17:34:08;25.00;42.20
1329;DHT22;658;48.820;9.354;2023-04-24T17:38:12;25.00;42.20
1329;DHT22;658;48.820;9.354;2023-04-24T17:42:12;24.90;42.20
1329;DHT22;658;48.820;9.354;2023-04-24T17:46:16;24.90;42.30
1329;DHT22;658;48.820;9.354;2023-04-24T17:50:17;24.80;42.20
1329;DHT22;658;48.820;9.354;2023-04-24T17:54:18;24.80;42.90
1329;DHT22;658;48.820;9.354;2023-04-24T17:58:23;24.80;42.80
1329;DHT22;658;48.820;9.354;2023-04-24T18:02:26;24.80;42.60
1329;DHT22;658;48.820;9.354;2023-04-24T18:06:26;24.80;42.40
1329;DHT22;658;48.820;9.354;2023-04-24T18:10:29;24.80;42.40
1329;DHT22;658;48.820;9.354;2023-04-24T18:14:30;24.70;42.40
1329;DHT22;658;48.820;9.354;2023-04-24T18:18:36;24.70;42.40
1329;DHT22;658;48.820;9.354;2023-04-24T18:22:40;24.70;42.40
1329;DHT22;658;48.820;9.354;2023-04-24T18:26:41;24.60;42.40
1329;DHT22;658;48.820;9.354;2023-04-24T18:30:42;24.60;42.40
1329;DHT22;658;48.820;9.354;2023-04-24T18:34:42;24.50;42.30
1329;DHT22;658;48.820;9.354;2023-04-24T18:38:45;24.50;42.30
1329;DHT22;658;48.820;9.354;2023-04-24T18:42:46;24.50;42.40
1329;DHT22;658;48.820;9.354;2023-04-24T18:46:49;24.50;42.40
1329;DHT22;658;48.820;9.354;2023-04-24T18:50:50;24.50;42.70
1329;DHT22;658;48.820;9.354;2023-04-24T18:54:54;24.50;42.70
1329;DHT22;658;48.820;9.354;2023-04-24T18:58:55;24.50;42.70
1329;DHT22;658;48.820;9.354;2023-04-24T19:02:59;24.50;42.70
1329;DHT22;658;48.820;9.354;2023-04-24T19:07:06;24.50;42.90
1329;DHT22;658;48.820;9.354;2023-04-24T19:11:11;24.50;43.00
1329;DHT22;658;48.820;9.354;2023-04-24T19:15:13;24.50;42.90
1329;DHT22;658;48.820;9.354;2023-04-24T19:19:14;24.50;43.10
1329;DHT22;658;48.820;9.354;2023-04-24T19:23:15;24.50;43.10
1329;DHT22;658;48.820;9.354;2023-04-24T19:27:16;24.50;43.00
1329;DHT22;658;48.820;9.354;2023-04-24T19:31:17;24.50;42.90
1329;DHT22;658;48.820;9.354;2023-04-24T19:35:19;24.50;42.90
1329;DHT22;658;48.820;9.354;2023-04-24T19:39:20;24.50;42.90
1329;DHT22;658;48.820;9.354;2023-04-24T19:43:20;24.40;42.80
1329;DHT22;658;48.820;9.354;2023-04-24T19:47:23;24.40;42.80
1329;DHT22;658;48.820;9.354;2023-04-24T19:51:24;24.30;42.70
1329;DHT22;658;48.820;9.354;2023-04-24T19:55:25;24.30;42.80
1329;DHT22;658;48.820;9.354;2023-04-24T19:59:26;24.30;42.90
1329;DHT22;658;48.820;9.354;2023-04-24T20:03:27;24.20;42.90
1329;DHT22;658;48.820;9.354;2023-04-24T20:07:27;24.20;42.80
1329;DHT22;658;48.820;9.354;2023-04-24T20:11:28;24.20;42.90
1329;DHT22;658;48.820;9.354;2023-04-24T20:15:28;24.10;42.70
1329;DHT22;658;48.820;9.354;2023-04-24T20:19:30;24.10;42.80
1329;DHT22;658;48.820;9.354;2023-04-24T20:23:31;24.10;42.90
1329;DHT22;658;48.820;9.354;2023-04-24T20:27:32;24.10;42.90
1329;DHT22;658;48.820;9.354;2023-04-24T20:31:34;24.10;42.90
1329;DHT22;658;48.820;9.354;2023-04-24T20:35:37;24.00;42.80
1329;DHT22;658;48.820;9.354;2023-04-24T20:39:37;24.00;42.90
1329;DHT22;658;48.820;9.354;2023-04-24T20:43:41;24.00;43.20
1329;DHT22;658;48.820;9.354;2023-04-24T20:47:41;24.00;43.10
1329;DHT22;658;48.820;9.354;2023-04-24T20:51:42;24.10;43.10
1329;DHT22;658;48.820;9.354;2023-04-24T20:55:43;24.10;43.10
1329;DHT22;658;48.820;9.354;2023-04-24T20:59:45;24.10;43.10
1329;DHT22;658;48.820;9.354;2023-04-24T21:03:46;24.10;42.90
1329;DHT22;658;48.820;9.354;2023-04-24T21:07:47;24.10;42.90
1329;DHT22;658;48.820;9.354;2023-04-24T21:11:48;24.10;43.40
1329;DHT22;658;48.820;9.354;2023-04-24T21:15:51;24.00;42.80
1329;DHT22;658;48.820;9.354;2023-04-24T21:19:54;24.00;42.80
1329;DHT22;658;48.820;9.354;2023-04-24T21:24:00;24.00;42.90
1329;DHT22;658;48.820;9.354;2023-04-24T21:28:03;24.00;42.90
1329;DHT22;658;48.820;9.354;2023-04-24T21:32:06;23.90;42.80
1329;DHT22;658;48.820;9.354;2023-04-24T21:36:09;23.90;42.80
1329;DHT22;658;48.820;9.354;2023-04-24T21:40:10;23.90;42.80
1329;DHT22;658;48.820;9.354;2023-04-24T21:44:15;23.80;42.80
1329;DHT22;658;48.820;9.354;2023-04-24T21:48:18;23.80;42.90
1329;DHT22;658;48.820;9.354;2023-04-24T21:52:18;23.80;42.90
1329;DHT22;658;48.820;9.354;2023-04-24T21:56:19;23.70;42.80
1329;DHT22;658;48.820;9.354;2023-04-24T22:00:22;23.70;42.90
1329;DHT22;658;48.820;9.354;2023-04-24T22:04:24;23.70;42.90
1329;DHT22;658;48.820;9.354;2023-04-24T22:08:24;23.70;43.00
1329;DHT22;658;48.820;9.354;2023-04-24T22:12:27;23.60;43.60
1329;DHT22;658;48.820;9.354;2023-04-24T22:16:28;23.60;43.00
1329;DHT22;658;48.820;9.354;2023-04-24T22:20:36;23.60;43.00
1329;DHT22;658;48.820;9.354;2023-04-24T22:24:36;23.50;43.60
1329;DHT22;658;48.820;9.354;2023-04-24T22:28:37;23.50;43.00
1329;DHT22;658;48.820;9.354;2023-04-24T22:32:38;23.50;43.10
1329;DHT22;658;48.820;9.354;2023-04-24T22:36:43;23.50;43.10
1329;DHT22;658;48.820;9.354;2023-04-24T22:40:43;23.40;43.00
1329;DHT22;658;48.820;9.354;2023-04-24T22:44:44;23.40;43.10
1329;DHT22;658;48.820;9.354;2023-04-24T22:48:45;23.40;43.10
1329;DHT22;658;48.820;9.354;2023-04-24T22:52:47;23.40;43.20
1329;DHT22;658;48.820;9.354;2023-04-24T22:56:48;23.30;43.10
1329;DHT22;658;48.820;9.354;2023-04-24T23:00:48;23.30;43.10
1329;DHT22;658;48.820;9.354;2023-04-24T23:04:49;23.30;43.10
1329;DHT22;658;48.820;9.354;2023-04-24T23:08:50;23.30;43.10
1329;DHT22;658;48.820;9.354;2023-04-24T23:12:50;23.30;43.20
1329;DHT22;658;48.820;9.354;2023-04-24T23:16:53;23.30;43.20
1329;DHT22;658;48.820;9.354;2023-04-24T23:20:54;23.30;43.20
1329;DHT22;658;48.820;9.354;2023-04-24T23:24:59;23.20;43.20
1329;DHT22;658;48.820;9.354;2023-04-24T23:29:02;23.20;43.20
1329;DHT22;658;48.820;9.354;2023-04-24T23:33:05;23.20;43.20
1329;DHT22;658;48.820;9.354;2023-04-24T23:37:08;23.20;43.20
1329;DHT22;658;48.820;9.354;2023-04-24T23:41:09;23.20;43.30
1329;DHT22;658;48.820;9.354;2023-04-24T23:45:10;23.10;43.20
1329;DHT22;658;48.820;9.354;2023-04-24T23:49:13;23.10;43.30
1329;DHT22;658;48.820;9.354;2023-04-24T23:53:16;23.10;43.30
1329;DHT22;658;48.820;9.354;2023-04-24T23:57:17;23.10;43.20
